Time;durP1;ratioP1;P1;durP2;ratioP2;P2;SDS_P1;SDS_P2;PMS_P1;PMS_P2;Temp;Humidity;BMP_temperature;BMP_pressure;BME280_temperature;BME280_humidity;BME280_pressure;Samples;Min_cycle;Max_cycle;Signal;HPM_P1;HPM_P2
2022/03/20 00:00:17;;;;;;;32.93;22.30;;;;;;;;;;5039193;28;20211;-76
2022/03/20 00:02:46;;;;;;;42.10;21.07;;;;;;;;;;5039632;28;20257;-76
2022/03/20 00:05:15;;;;;;;34.43;21.50;;;;;;;;;;5039290;28;20207;-76
2022/03/20 00:07:44;;;;;;;35.83;22.07;;;;;;;;;;5039256;28;20207;-76
2022/03/20 00:10:12;;;;;;;30.43;20.30;;;;;;;;;;5039633;28;20294;-76
2022/03/20 00:12:41;;;;;;;31.50;20.50;;;;;;;;;;5039245;28;20633;-76
2022/03/20 00:15:09;;;;;;;37.33;21.37;;;;;;;;;;5039060;28;20246;-76
2022/03/20 00:17:37;;;;;;;33.10;21.10;;;;;;;;;;5039440;28;20203;-76
2022/03/20 00:20:08;;;;;;;31.80;20.40;;;;;;;;;;5039696;28;20654;-76
2022/03/20 00:22:37;;;;;;;33.20;20.30;;;;;;;;;;5040781;28;20258;-76
2022/03/20 00:25:05;;;;;;;34.53;20.50;;;;;;;;;;5040606;28;20290;-76
2022/03/20 00:27:34;;;;;;;32.77;21.07;;;;;;;;;;5040355;28;20196;-76
2022/03/20 00:30:02;;;;;;;36.00;20.77;;;;;;;;;;5038932;28;20294;-76
2022/03/20 00:32:30;;;;;;;32.20;20.57;;;;;;;;;;5039125;28;20238;-75
2022/03/20 00:34:59;;;;;;;32.00;19.50;;;;;;;;;;5039136;28;20300;-76
2022/03/20 00:37:29;;;;;;;27.03;17.90;;;;;;;;;;5038844;28;20346;-76
2022/03/20 00:39:58;;;;;;;28.50;17.57;;;;;;;;;;5039010;28;20267;-76
2022/03/20 00:42:26;;;;;;;24.33;17.50;;;;;;;;;;5038744;28;20262;-76
2022/03/20 00:44:54;;;;;;;29.27;18.43;;;;;;;;;;5038712;28;20556;-76
2022/03/20 00:47:22;;;;;;;30.47;18.13;;;;;;;;;;5038854;28;20301;-76
2022/03/20 00:49:50;;;;;;;28.23;16.47;;;;;;;;;;5038565;28;20671;-76
2022/03/20 00:52:18;;;;;;;23.77;16.10;;;;;;;;;;5028055;28;20551;-76
2022/03/20 00:54:48;;;;;;;25.53;15.93;;;;;;;;;;5037137;28;20246;-76
2022/03/20 00:57:16;;;;;;;24.97;15.37;;;;;;;;;;5038170;28;20258;-76
2022/03/20 00:59:44;;;;;;;25.83;14.90;;;;;;;;;;5038043;28;20238;-76
2022/03/20 01:02:12;;;;;;;23.80;15.20;;;;;;;;;;5038267;28;20686;-76
2022/03/20 01:04:41;;;;;;;24.50;12.97;;;;;;;;;;5038392;28;20669;-76
2022/03/20 01:07:09;;;;;;;27.33;13.97;;;;;;;;;;5038167;28;20658;-76
2022/03/20 01:09:37;;;;;;;20.10;12.17;;;;;;;;;;5038166;28;20246;-76
2022/03/20 01:12:08;;;;;;;24.00;12.37;;;;;;;;;;5038619;28;20235;-75
2022/03/20 01:14:36;;;;;;;19.93;12.13;;;;;;;;;;5038195;28;20211;-76
2022/03/20 01:17:04;;;;;;;19.00;11.83;;;;;;;;;;5038380;28;20307;-76
2022/03/20 01:19:33;;;;;;;17.97;11.13;;;;;;;;;;5038419;28;20290;-76
2022/03/20 01:22:01;;;;;;;17.67;11.50;;;;;;;;;;5038585;28;20258;-76
2022/03/20 01:24:29;;;;;;;18.93;11.53;;;;;;;;;;5025133;28;20262;-76
2022/03/20 01:26:57;;;;;;;18.77;11.77;;;;;;;;;;5038018;28;20281;-75
2022/03/20 01:29:27;;;;;;;18.80;11.53;;;;;;;;;;5037831;28;20231;-76
2022/03/20 01:31:55;;;;;;;18.07;10.60;;;;;;;;;;5038329;28;20238;-76
2022/03/20 01:34:23;;;;;;;18.43;11.53;;;;;;;;;;5038069;28;20242;-75
2022/03/20 01:36:51;;;;;;;18.50;11.53;;;;;;;;;;5037892;28;20762;-76
2022/03/20 01:39:19;;;;;;;18.07;10.80;;;;;;;;;;5038192;28;20271;-76
2022/03/20 01:41:47;;;;;;;17.97;10.33;;;;;;;;;;5037877;28;20258;-75
2022/03/20 01:44:15;;;;;;;17.77;11.10;;;;;;;;;;5037636;28;20613;-76
2022/03/20 01:46:45;;;;;;;15.33;10.57;;;;;;;;;;5037553;28;20318;-76
2022/03/20 01:49:13;;;;;;;18.67;10.73;;;;;;;;;;5038898;28;20239;-76
2022/03/20 01:54:28;;;;;;;14.03;10.17;;;;;;;;;;5038811;28;20637;-76
2022/03/20 01:56:56;;;;;;;15.30;10.20;;;;;;;;;;5038558;28;20262;-76
2022/03/20 01:59:24;;;;;;;14.17;10.40;;;;;;;;;;5025826;28;20239;-75
2022/03/20 02:01:54;;;;;;;18.33;9.63;;;;;;;;;;5037369;28;20741;-76
2022/03/20 02:04:22;;;;;;;17.63;10.43;;;;;;;;;;5038047;28;20203;-76
2022/03/20 02:06:50;;;;;;;21.53;10.30;;;;;;;;;;5037266;28;20319;-76
2022/03/20 02:09:18;;;;;;;15.50;10.63;;;;;;;;;;5037602;28;20246;-75
2022/03/20 02:11:48;;;;;;;16.93;11.13;;;;;;;;;;5037542;28;20235;-79
2022/03/20 02:14:16;;;;;;;22.50;10.90;;;;;;;;;;5037147;28;20269;-78
2022/03/20 02:16:44;;;;;;;18.40;10.67;;;;;;;;;;5037476;28;20310;-79
2022/03/20 02:19:15;;;;;;;18.47;10.53;;;;;;;;;;5037376;28;20777;-75
2022/03/20 02:21:45;;;;;;;19.60;11.67;;;;;;;;;;5037504;28;20226;-77
2022/03/20 02:24:28;;;;;;;28.13;13.97;;;;;;;;;;5037331;28;20235;-75
2022/03/20 02:27:02;;;;;;;20.30;12.47;;;;;;;;;;5035332;28;20773;-78
2022/03/20 02:29:30;;;;;;;19.53;11.67;;;;;;;;;;5024885;28;20234;-78
2022/03/20 02:31:59;;;;;;;15.43;10.97;;;;;;;;;;5037370;28;20211;-78
2022/03/20 02:34:27;;;;;;;15.80;11.10;;;;;;;;;;5037570;28;20245;-78
2022/03/20 02:36:57;;;;;;;21.00;11.70;;;;;;;;;;5036928;28;20730;-76
2022/03/20 02:39:25;;;;;;;17.33;10.80;;;;;;;;;;5037294;28;20239;-76
2022/03/20 02:41:54;;;;;;;19.70;11.63;;;;;;;;;;5037069;28;20258;-78
2022/03/20 02:44:46;;;;;;;15.23;10.87;;;;;;;;;;5037225;28;20265;-78
2022/03/20 02:47:15;;;;;;;19.97;11.93;;;;;;;;;;5037029;28;20271;-78
2022/03/20 02:49:43;;;;;;;25.27;11.50;;;;;;;;;;5037089;28;20801;-78
2022/03/20 02:52:13;;;;;;;18.33;10.77;;;;;;;;;;5037230;28;20231;-79
2022/03/20 02:54:42;;;;;;;17.83;10.10;;;;;;;;;;5037117;28;20239;-78
2022/03/20 02:57:10;;;;;;;14.70;10.23;;;;;;;;;;5036889;28;20259;-77
2022/03/20 02:59:38;;;;;;;14.50;10.07;;;;;;;;;;5027978;28;20246;-77
2022/03/20 03:02:09;;;;;;;15.33;10.37;;;;;;;;;;5036986;28;20275;-77
2022/03/20 03:04:38;;;;;;;17.23;9.97;;;;;;;;;;5036616;28;20238;-77
2022/03/20 03:07:06;;;;;;;16.47;9.90;;;;;;;;;;5036046;28;20228;-77
2022/03/20 03:12:22;;;;;;;18.20;11.93;;;;;;;;;;5036114;28;20234;-77
2022/03/20 03:17:35;;;;;;;16.20;10.83;;;;;;;;;;5035539;28;20207;-76
2022/03/20 03:20:04;;;;;;;16.50;11.33;;;;;;;;;;5039893;28;20231;-76
2022/03/20 03:22:32;;;;;;;19.30;11.13;;;;;;;;;;5040116;28;20660;-76
2022/03/20 03:25:01;;;;;;;15.07;10.20;;;;;;;;;;5040633;28;20291;-75
2022/03/20 03:27:29;;;;;;;18.23;10.63;;;;;;;;;;5040322;28;20246;-75
2022/03/20 03:29:57;;;;;;;15.63;10.07;;;;;;;;;;5039234;28;20294;-75
2022/03/20 03:32:25;;;;;;;14.33;8.57;;;;;;;;;;5026003;28;20196;-76
2022/03/20 03:37:39;;;;;;;18.07;8.47;;;;;;;;;;5044563;28;20203;-76
2022/03/20 03:40:09;;;;;;;12.70;7.90;;;;;;;;;;5039852;28;20227;-76
2022/03/20 03:42:37;;;;;;;14.83;7.33;;;;;;;;;;5041635;28;20314;-76
2022/03/20 03:45:05;;;;;;;14.17;7.80;;;;;;;;;;5039498;28;20286;-76
2022/03/20 03:47:34;;;;;;;12.00;8.40;;;;;;;;;;5039263;28;20262;-76
2022/03/20 03:50:02;;;;;;;14.63;9.07;;;;;;;;;;5039458;28;20715;-76
2022/03/20 03:52:30;;;;;;;10.83;7.23;;;;;;;;;;5035290;28;20249;-76
2022/03/20 03:54:58;;;;;;;12.37;7.97;;;;;;;;;;5046609;28;20290;-76
2022/03/20 03:57:28;;;;;;;15.23;8.50;;;;;;;;;;5039614;28;20271;-77
2022/03/20 03:59:56;;;;;;;15.23;8.20;;;;;;;;;;5046939;28;20234;-77
2022/03/20 04:02:24;;;;;;;16.30;7.90;;;;;;;;;;5054356;28;20630;-77
2022/03/20 04:04:52;;;;;;;16.83;8.53;;;;;;;;;;5051299;28;20269;-75
2022/03/20 04:07:21;;;;;;;14.30;8.20;;;;;;;;;;5045457;28;20713;-76
2022/03/20 04:09:49;;;;;;;12.20;7.80;;;;;;;;;;5040208;28;20307;-77
2022/03/20 04:12:17;;;;;;;17.27;8.13;;;;;;;;;;5038366;28;20238;-77
2022/03/20 04:14:46;;;;;;;12.97;7.80;;;;;;;;;;5050826;28;20667;-75
2022/03/20 04:17:14;;;;;;;15.17;8.00;;;;;;;;;;5039584;28;20298;-77
2022/03/20 04:19:42;;;;;;;11.53;8.33;;;;;;;;;;5034617;28;20236;-77
2022/03/20 04:22:10;;;;;;;15.77;7.80;;;;;;;;;;5040103;28;20231;-76
2022/03/20 04:24:38;;;;;;;10.77;7.03;;;;;;;;;;5044642;28;20765;-75
2022/03/20 04:27:11;;;;;;;11.83;7.27;;;;;;;;;;5044195;28;20258;-76
2022/03/20 04:29:39;;;;;;;12.20;7.23;;;;;;;;;;5038624;28;20644;-76
2022/03/20 04:32:09;;;;;;;9.97;6.43;;;;;;;;;;5040074;28;20230;-76
2022/03/20 04:34:37;;;;;;;17.57;7.90;;;;;;;;;;5045058;28;20223;-76
2022/03/20 04:37:05;;;;;;;12.57;6.87;;;;;;;;;;5038755;28;20658;-76
2022/03/20 04:39:34;;;;;;;13.33;7.37;;;;;;;;;;5039255;28;20239;-76
2022/03/20 04:42:03;;;;;;;9.90;7.23;;;;;;;;;;5038943;28;20235;-77
2022/03/20 04:44:31;;;;;;;13.00;6.90;;;;;;;;;;5031304;28;20323;-77
2022/03/20 04:46:59;;;;;;;15.33;7.33;;;;;;;;;;5036760;28;20271;-77
2022/03/20 05:00:31;;;;;;;11.93;7.53;;;;;;;;;;5039537;28;20258;-79
2022/03/20 05:02:59;;;;;;;16.53;7.57;;;;;;;;;;5038581;28;20287;-77
2022/03/20 05:05:28;;;;;;;15.17;7.83;;;;;;;;;;5041492;28;20234;-76
2022/03/20 05:07:56;;;;;;;11.97;7.37;;;;;;;;;;5048157;28;20287;-79
2022/03/20 05:13:22;;;;;;;12.80;6.83;;;;;;;;;;5042307;28;20337;-78
2022/03/20 05:15:50;;;;;;;13.23;8.23;;;;;;;;;;5038093;28;20286;-78
2022/03/20 05:18:19;;;;;;;12.80;6.90;;;;;;;;;;5044108;28;20212;-79
2022/03/20 05:20:49;;;;;;;13.63;7.60;;;;;;;;;;5042599;28;20230;-78
2022/03/20 05:23:17;;;;;;;15.30;7.53;;;;;;;;;;5048445;28;20290;-78
2022/03/20 05:25:45;;;;;;;9.70;7.17;;;;;;;;;;5043219;28;20283;-79
2022/03/20 05:28:13;;;;;;;13.67;7.57;;;;;;;;;;5038009;28;20655;-78
2022/03/20 05:30:42;;;;;;;13.77;7.97;;;;;;;;;;5037926;28;20276;-78
2022/03/20 05:33:11;;;;;;;12.87;7.10;;;;;;;;;;5038346;28;20311;-78
2022/03/20 05:35:40;;;;;;;12.37;6.97;;;;;;;;;;5041071;28;20251;-79
2022/03/20 05:38:09;;;;;;;13.03;7.53;;;;;;;;;;5037576;28;20639;-79
2022/03/20 05:40:38;;;;;;;14.00;6.87;;;;;;;;;;5037284;28;20636;-79
2022/03/20 05:43:08;;;;;;;10.37;7.77;;;;;;;;;;5045519;28;20649;-78
2022/03/20 05:45:37;;;;;;;13.27;7.83;;;;;;;;;;5037686;28;20318;-79
2022/03/20 05:48:06;;;;;;;13.53;7.60;;;;;;;;;;5040918;28;20284;-79
2022/03/20 05:50:34;;;;;;;12.90;7.90;;;;;;;;;;5047513;28;20287;-78
2022/03/20 05:53:02;;;;;;;15.87;7.70;;;;;;;;;;5051898;28;20291;-77
2022/03/20 05:58:17;;;;;;;13.33;7.70;;;;;;;;;;5049895;28;20231;-79
2022/03/20 06:00:45;;;;;;;12.43;7.23;;;;;;;;;;5051910;28;20342;-78
2022/03/20 06:03:14;;;;;;;11.87;7.53;;;;;;;;;;5048356;28;20218;-79
2022/03/20 06:05:42;;;;;;;13.60;8.03;;;;;;;;;;5053492;28;20314;-79
2022/03/20 06:08:10;;;;;;;15.03;7.57;;;;;;;;;;5046229;28;20231;-79
2022/03/20 06:10:39;;;;;;;13.20;7.40;;;;;;;;;;5050761;28;20722;-79
2022/03/20 06:13:08;;;;;;;13.33;8.03;;;;;;;;;;5049952;28;20267;-79
2022/03/20 06:15:36;;;;;;;20.23;9.20;;;;;;;;;;5049390;28;20302;-79
2022/03/20 06:18:04;;;;;;;13.30;7.63;;;;;;;;;;5043385;28;20207;-79
2022/03/20 06:20:34;;;;;;;16.53;8.10;;;;;;;;;;5030947;28;20234;-78
2022/03/20 06:23:02;;;;;;;11.40;7.70;;;;;;;;;;5046493;28;20840;-79
2022/03/20 06:25:30;;;;;;;14.80;7.63;;;;;;;;;;5047210;28;20657;-79
2022/03/20 06:28:00;;;;;;;14.17;7.60;;;;;;;;;;5042383;28;20270;-79
2022/03/20 06:30:33;;;;;;;14.20;7.73;;;;;;;;;;5053881;28;20202;-78
2022/03/20 06:33:02;;;;;;;13.30;7.33;;;;;;;;;;5048240;28;20235;-78
2022/03/20 06:35:30;;;;;;;10.57;7.33;;;;;;;;;;5050043;28;20216;-79
2022/03/20 06:37:58;;;;;;;15.17;7.43;;;;;;;;;;5045752;28;20207;-79
2022/03/20 06:40:26;;;;;;;15.07;8.03;;;;;;;;;;5048056;28;20228;-79
2022/03/20 06:42:55;;;;;;;16.30;7.90;;;;;;;;;;5050390;28;20341;-78
2022/03/20 06:45:24;;;;;;;11.23;7.37;;;;;;;;;;5050106;28;20657;-79
2022/03/20 06:47:52;;;;;;;11.30;7.57;;;;;;;;;;5045859;28;20231;-78
2022/03/20 06:50:21;;;;;;;14.13;7.37;;;;;;;;;;5044978;28;20223;-79
2022/03/20 06:52:49;;;;;;;11.37;7.63;;;;;;;;;;5048648;28;20281;-79
2022/03/20 06:55:18;;;;;;;10.37;7.90;;;;;;;;;;5053474;28;20298;-79
2022/03/20 06:57:47;;;;;;;14.93;8.20;;;;;;;;;;5049700;28;20211;-79
2022/03/20 07:00:17;;;;;;;12.70;7.03;;;;;;;;;;5048787;28;20290;-77
2022/03/20 07:02:47;;;;;;;18.87;8.10;;;;;;;;;;5055338;28;20227;-79
2022/03/20 07:05:15;;;;;;;12.23;7.33;;;;;;;;;;5047083;28;20260;-79
2022/03/20 07:07:43;;;;;;;11.53;6.83;;;;;;;;;;5048752;28;20248;-79
2022/03/20 07:10:14;;;;;;;10.97;6.70;;;;;;;;;;5054897;28;20285;-79
2022/03/20 07:12:42;;;;;;;14.23;8.37;;;;;;;;;;5052606;28;20661;-79
2022/03/20 07:15:10;;;;;;;13.73;7.50;;;;;;;;;;5052165;28;20230;-79
2022/03/20 07:17:38;;;;;;;14.27;8.10;;;;;;;;;;5052437;28;20649;-78
2022/03/20 07:20:10;;;;;;;17.07;8.07;;;;;;;;;;5051390;28;20286;-79
2022/03/20 07:22:38;;;;;;;12.00;7.40;;;;;;;;;;5047964;28;20199;-79
2022/03/20 07:30:31;;;;;;;10.37;6.87;;;;;;;;;;5005912;28;20282;-79
2022/03/20 07:32:59;;;;;;;19.70;7.30;;;;;;;;;;5047036;28;20289;-79
2022/03/20 07:35:28;;;;;;;12.57;6.67;;;;;;;;;;5055620;28;20215;-79
2022/03/20 07:37:57;;;;;;;11.93;7.40;;;;;;;;;;5049241;28;20200;-79
2022/03/20 07:40:25;;;;;;;10.10;6.63;;;;;;;;;;5053188;28;20622;-79
2022/03/20 07:42:53;;;;;;;11.43;7.13;;;;;;;;;;5054448;28;20195;-79
2022/03/20 07:45:22;;;;;;;13.60;6.77;;;;;;;;;;5050258;28;20251;-79
2022/03/20 07:47:50;;;;;;;12.47;6.80;;;;;;;;;;5052020;28;20729;-77
2022/03/20 07:50:18;;;;;;;13.53;6.83;;;;;;;;;;5051753;28;20226;-79
2022/03/20 07:52:50;;;;;;;12.60;8.43;;;;;;;;;;5041649;28;20287;-79
2022/03/20 07:55:18;;;;;;;12.17;7.13;;;;;;;;;;5047616;28;20814;-78
2022/03/20 07:57:46;;;;;;;10.33;6.37;;;;;;;;;;5052648;28;20227;-79
2022/03/20 08:00:14;;;;;;;13.47;7.73;;;;;;;;;;5052369;28;20235;-77
2022/03/20 08:02:42;;;;;;;10.90;6.47;;;;;;;;;;5051569;28;20238;-79
2022/03/20 08:05:11;;;;;;;13.97;6.90;;;;;;;;;;5045744;28;20275;-78
2022/03/20 08:07:39;;;;;;;13.60;6.97;;;;;;;;;;5055300;28;20230;-79
2022/03/20 08:10:09;;;;;;;11.97;7.13;;;;;;;;;;5049199;28;20235;-79
2022/03/20 08:12:37;;;;;;;12.53;6.43;;;;;;;;;;5051606;28;20234;-79
2022/03/20 08:15:10;;;;;;;13.53;6.90;;;;;;;;;;5050764;28;20199;-79
2022/03/20 08:17:43;;;;;;;10.03;6.83;;;;;;;;;;5047106;28;20294;-79
2022/03/20 08:20:11;;;;;;;10.57;6.30;;;;;;;;;;5049329;28;20230;-79
2022/03/20 08:22:40;;;;;;;11.37;7.50;;;;;;;;;;5043551;28;20235;-79
2022/03/20 08:25:10;;;;;;;15.40;7.17;;;;;;;;;;5049360;28;20691;-79
2022/03/20 08:27:45;;;;;;;13.23;7.20;;;;;;;;;;5040464;28;20286;-79
2022/03/20 08:30:15;;;;;;;13.77;7.13;;;;;;;;;;5036165;28;20237;-80
2022/03/20 08:32:43;;;;;;;13.73;7.47;;;;;;;;;;5037117;28;20199;-80
2022/03/20 08:35:14;;;;;;;12.73;6.87;;;;;;;;;;5037521;28;20220;-79
2022/03/20 08:37:43;;;;;;;15.03;6.90;;;;;;;;;;5036192;28;20291;-78
2022/03/20 08:40:15;;;;;;;12.30;7.03;;;;;;;;;;5037747;28;20203;-78
2022/03/20 08:42:44;;;;;;;12.13;7.03;;;;;;;;;;5037273;28;20651;-74
2022/03/20 08:45:12;;;;;;;12.63;6.90;;;;;;;;;;5044313;28;20218;-78
2022/03/20 08:47:44;;;;;;;10.70;6.30;;;;;;;;;;5051657;28;20318;-78
2022/03/20 08:50:14;;;;;;;10.90;6.60;;;;;;;;;;5034833;28;20231;-76
2022/03/20 08:52:43;;;;;;;11.07;6.23;;;;;;;;;;5047166;28;20203;-75
2022/03/20 08:55:12;;;;;;;11.23;6.50;;;;;;;;;;5051300;28;20224;-76
2022/03/20 08:57:41;;;;;;;12.83;6.63;;;;;;;;;;5048052;28;20637;-75
2022/03/20 09:00:10;;;;;;;12.00;6.30;;;;;;;;;;5047320;28;20231;-76
2022/03/20 09:02:38;;;;;;;10.30;5.90;;;;;;;;;;5048040;28;20283;-76
2022/03/20 09:05:06;;;;;;;12.33;8.10;;;;;;;;;;5046685;28;20211;-76
2022/03/20 09:07:34;;;;;;;10.23;6.40;;;;;;;;;;5054668;28;20290;-75
2022/03/20 09:10:03;;;;;;;9.00;6.43;;;;;;;;;;5045627;28;20291;-76
2022/03/20 09:12:32;;;;;;;9.77;6.17;;;;;;;;;;5042424;28;20265;-76
2022/03/20 09:15:01;;;;;;;8.60;5.80;;;;;;;;;;5052010;28;20230;-76
2022/03/20 09:20:14;;;;;;;10.73;5.97;;;;;;;;;;5051852;28;20298;-76
2022/03/20 09:22:42;;;;;;;8.80;5.83;;;;;;;;;;5049521;28;20632;-76
2022/03/20 09:25:10;;;;;;;7.90;6.03;;;;;;;;;;5042624;28;20207;-76
2022/03/20 09:27:40;;;;;;;9.90;6.13;;;;;;;;;;5045511;28;20604;-76
2022/03/20 09:30:09;;;;;;;9.03;5.97;;;;;;;;;;5049855;28;20321;-67
2022/03/20 09:32:37;;;;;;;10.77;6.20;;;;;;;;;;5050227;28;20234;-67
2022/03/20 09:35:05;;;;;;;8.73;5.93;;;;;;;;;;5050190;28;20630;-72
2022/03/20 09:37:33;;;;;;;9.23;6.03;;;;;;;;;;5036599;28;20279;-72
2022/03/20 09:40:01;;;;;;;9.17;6.33;;;;;;;;;;5037704;28;20646;-72
2022/03/20 09:42:30;;;;;;;9.03;5.60;;;;;;;;;;5036757;28;20227;-73
2022/03/20 09:44:59;;;;;;;8.10;5.93;;;;;;;;;;5038136;28;20298;-71
2022/03/20 09:47:27;;;;;;;12.10;6.47;;;;;;;;;;5035543;28;20295;-73
2022/03/20 09:49:57;;;;;;;8.60;5.23;;;;;;;;;;5039972;28;20258;-70
2022/03/20 09:52:28;;;;;;;7.37;5.73;;;;;;;;;;5038177;28;20199;-69
2022/03/20 09:54:59;;;;;;;15.13;6.07;;;;;;;;;;5038315;28;20282;-67
2022/03/20 09:57:29;;;;;;;9.73;6.37;;;;;;;;;;5034082;28;20199;-75
2022/03/20 09:59:57;;;;;;;12.10;6.30;;;;;;;;;;5037379;28;20226;-68
2022/03/20 10:02:28;;;;;;;121.07;66.33;;;;;;;;;;5035397;28;20238;-76
2022/03/20 10:04:57;;;;;;;11.90;6.93;;;;;;;;;;5036818;28;20230;-76
2022/03/20 10:07:27;;;;;;;8.57;6.33;;;;;;;;;;5033985;28;20709;-77
2022/03/20 10:10:12;;;;;;;11.17;5.67;;;;;;;;;;5035415;28;20286;-77
2022/03/20 10:12:43;;;;;;;7.70;5.43;;;;;;;;;;5038630;28;20287;-76
2022/03/20 10:15:14;;;;;;;7.03;5.00;;;;;;;;;;5042173;28;20285;-76
2022/03/20 10:17:43;;;;;;;10.03;5.73;;;;;;;;;;5032892;28;20274;-76
2022/03/20 10:20:14;;;;;;;7.87;5.60;;;;;;;;;;5036560;28;20228;-76
2022/03/20 10:22:42;;;;;;;9.70;5.50;;;;;;;;;;5038759;28;20801;-78
2022/03/20 10:25:12;;;;;;;7.67;5.93;;;;;;;;;;5041129;28;20230;-77
2022/03/20 10:27:56;;;;;;;7.70;5.43;;;;;;;;;;5036697;28;20649;-78
2022/03/20 10:30:25;;;;;;;8.13;5.60;;;;;;;;;;5040593;28;20231;-78
2022/03/20 10:32:54;;;;;;;10.33;6.17;;;;;;;;;;5043205;28;20200;-78
2022/03/20 10:35:23;;;;;;;8.17;5.93;;;;;;;;;;5039406;28;20254;-79
2022/03/20 10:37:52;;;;;;;8.57;5.27;;;;;;;;;;5039359;28;20202;-78
2022/03/20 10:40:23;;;;;;;11.57;5.67;;;;;;;;;;5049006;28;20247;-78
2022/03/20 10:43:11;;;;;;;9.57;5.50;;;;;;;;;;5040408;28;20282;-78
2022/03/20 10:45:56;;;;;;;10.07;5.13;;;;;;;;;;5039837;28;20302;-76
2022/03/20 10:48:37;;;;;;;7.53;5.30;;;;;;;;;;5036177;28;20239;-77
2022/03/20 10:51:05;;;;;;;10.47;5.80;;;;;;;;;;5038980;28;20242;-77
2022/03/20 10:53:33;;;;;;;8.17;5.37;;;;;;;;;;5039232;28;20230;-77
2022/03/20 10:56:06;;;;;;;7.20;5.93;;;;;;;;;;5034449;28;20667;-77
2022/03/20 10:58:38;;;;;;;7.77;5.20;;;;;;;;;;5039436;28;20663;-76
2022/03/20 11:01:07;;;;;;;10.40;5.77;;;;;;;;;;5040307;28;20258;-77
2022/03/20 11:03:38;;;;;;;11.57;5.77;;;;;;;;;;5040333;28;20245;-76
2022/03/20 11:06:07;;;;;;;7.93;5.63;;;;;;;;;;5038568;28;20586;-76
2022/03/20 11:08:36;;;;;;;7.10;5.40;;;;;;;;;;5038969;28;20314;-77
2022/03/20 11:11:06;;;;;;;8.77;6.30;;;;;;;;;;5043348;28;20211;-76
2022/03/20 11:13:34;;;;;;;10.33;7.07;;;;;;;;;;5042962;28;20315;-77
2022/03/20 11:16:06;;;;;;;7.23;5.40;;;;;;;;;;5040848;28;20258;-76
2022/03/20 11:18:36;;;;;;;12.13;7.10;;;;;;;;;;5039315;28;20259;-76
2022/03/20 11:21:06;;;;;;;11.60;6.70;;;;;;;;;;5040760;28;20272;-76
2022/03/20 11:23:35;;;;;;;7.50;5.73;;;;;;;;;;5046563;28;20864;-76
2022/03/20 11:26:04;;;;;;;7.90;5.20;;;;;;;;;;5048832;28;20776;-76
2022/03/20 11:28:36;;;;;;;10.20;6.10;;;;;;;;;;5048343;28;20706;-75
2022/03/20 11:31:04;;;;;;;24.33;13.93;;;;;;;;;;5053321;28;20632;-75
2022/03/20 11:33:32;;;;;;;8.90;6.47;;;;;;;;;;5043508;28;20458;-75
2022/03/20 11:36:01;;;;;;;13.10;7.47;;;;;;;;;;5041854;28;20255;-75
2022/03/20 11:38:35;;;;;;;10.63;6.33;;;;;;;;;;5041606;28;20235;-76
2022/03/20 11:41:07;;;;;;;13.53;7.27;;;;;;;;;;5041748;28;20210;-76
2022/03/20 11:43:37;;;;;;;20.73;14.43;;;;;;;;;;5038033;28;20307;-73
2022/03/20 11:46:21;;;;;;;8.33;7.07;;;;;;;;;;5038952;28;20258;-74
2022/03/20 11:49:07;;;;;;;11.27;6.47;;;;;;;;;;5037442;28;20795;-75
2022/03/20 11:51:53;;;;;;;9.10;6.70;;;;;;;;;;5032849;28;20291;-76
2022/03/20 11:54:29;;;;;;;9.47;7.47;;;;;;;;;;5047578;28;20291;-76
2022/03/20 11:56:58;;;;;;;12.00;5.87;;;;;;;;;;5051981;28;20245;-74
2022/03/20 11:59:54;;;;;;;9.07;6.23;;;;;;;;;;5049740;28;20287;-73
2022/03/20 12:02:28;;;;;;;8.40;5.50;;;;;;;;;;5019355;28;20235;-73
2022/03/20 12:05:02;;;;;;;10.43;6.30;;;;;;;;;;5037596;28;20226;-73
2022/03/20 12:07:36;;;;;;;7.73;6.23;;;;;;;;;;5045113;28;20234;-73
2022/03/20 12:10:10;;;;;;;9.67;5.40;;;;;;;;;;5050533;28;20686;-73
2022/03/20 12:12:49;;;;;;;11.17;6.30;;;;;;;;;;5046319;28;20203;-74
2022/03/20 12:15:19;;;;;;;9.33;6.00;;;;;;;;;;5052648;28;20267;-74
2022/03/20 12:18:03;;;;;;;12.37;6.90;;;;;;;;;;5040033;28;20192;-71
2022/03/20 12:20:51;;;;;;;6.93;4.93;;;;;;;;;;5047250;28;20682;-71
2022/03/20 12:23:37;;;;;;;8.03;6.07;;;;;;;;;;5055666;28;20253;-75
2022/03/20 12:26:31;;;;;;;7.33;5.43;;;;;;;;;;5037363;28;20230;-76
2022/03/20 12:29:17;;;;;;;10.47;6.00;;;;;;;;;;5052100;28;20226;-77
2022/03/20 12:31:55;;;;;;;9.60;5.93;;;;;;;;;;5053845;28;20839;-76
2022/03/20 12:34:25;;;;;;;8.80;5.50;;;;;;;;;;5050165;28;20234;-77
2022/03/20 12:36:53;;;;;;;8.37;6.23;;;;;;;;;;5039256;28;20254;-76
2022/03/20 12:39:36;;;;;;;8.13;5.33;;;;;;;;;;5049158;28;20226;-76
2022/03/20 12:42:16;;;;;;;9.50;5.90;;;;;;;;;;5028084;28;20762;-76
2022/03/20 12:44:48;;;;;;;8.53;5.47;;;;;;;;;;5051198;28;20670;-73
2022/03/20 12:47:17;;;;;;;10.13;5.40;;;;;;;;;;5048248;28;20255;-75
2022/03/20 12:49:47;;;;;;;11.20;5.97;;;;;;;;;;5046236;28;20739;-75
2022/03/20 12:52:16;;;;;;;8.77;5.57;;;;;;;;;;5044320;28;20738;-75
2022/03/20 12:54:52;;;;;;;8.20;6.20;;;;;;;;;;5049115;28;20233;-75
2022/03/20 13:00:19;;;;;;;7.27;5.70;;;;;;;;;;5145930;27;20566;-75
2022/03/20 13:02:57;;;;;;;11.03;5.47;;;;;;;;;;5131764;28;20231;-76
2022/03/20 13:05:25;;;;;;;10.23;6.03;;;;;;;;;;5133407;28;20251;-76
2022/03/20 13:07:54;;;;;;;9.37;5.37;;;;;;;;;;5131577;27;20198;-76
2022/03/20 13:10:23;;;;;;;11.13;6.37;;;;;;;;;;5132142;27;20299;-75
2022/03/20 13:13:08;;;;;;;9.13;5.97;;;;;;;;;;5131214;27;20287;-76
2022/03/20 13:15:40;;;;;;;10.80;6.57;;;;;;;;;;5132973;27;20619;-76
2022/03/20 13:18:10;;;;;;;7.87;5.80;;;;;;;;;;5131208;27;20223;-76
2022/03/20 13:20:40;;;;;;;7.63;6.80;;;;;;;;;;5133018;27;20278;-77
2022/03/20 13:23:10;;;;;;;7.03;5.83;;;;;;;;;;5124022;27;20239;-77
2022/03/20 13:25:42;;;;;;;8.17;5.73;;;;;;;;;;5130501;27;20220;-78
2022/03/20 13:28:21;;;;;;;9.73;5.97;;;;;;;;;;5132374;27;20543;-78
2022/03/20 13:30:51;;;;;;;10.73;6.13;;;;;;;;;;5127154;27;20200;-77
2022/03/20 13:33:27;;;;;;;9.97;5.40;;;;;;;;;;5133370;27;20211;-77
2022/03/20 13:35:56;;;;;;;6.20;5.00;;;;;;;;;;5132773;27;20634;-78
2022/03/20 13:38:31;;;;;;;6.50;4.63;;;;;;;;;;5133169;27;20655;-79
2022/03/20 13:41:07;;;;;;;6.70;5.50;;;;;;;;;;5132821;27;20214;-78
2022/03/20 13:43:37;;;;;;;7.13;5.33;;;;;;;;;;5132975;27;20200;-78
2022/03/20 13:46:16;;;;;;;11.40;5.07;;;;;;;;;;5131240;27;20587;-78
2022/03/20 13:48:45;;;;;;;9.97;5.60;;;;;;;;;;5133035;27;20200;-78
2022/03/20 13:51:14;;;;;;;8.50;4.80;;;;;;;;;;5132995;27;20260;-78
2022/03/20 13:53:42;;;;;;;14.03;5.80;;;;;;;;;;5128940;27;20208;-78
2022/03/20 13:56:24;;;;;;;9.60;5.20;;;;;;;;;;5126357;27;20258;-78
2022/03/20 13:59:01;;;;;;;10.33;5.40;;;;;;;;;;5131310;27;20232;-78
2022/03/20 14:01:30;;;;;;;7.80;5.40;;;;;;;;;;5133169;27;20200;-78
2022/03/20 14:04:09;;;;;;;6.43;5.07;;;;;;;;;;5131583;27;20250;-77
2022/03/20 14:06:38;;;;;;;16.33;5.93;;;;;;;;;;5128845;27;20216;-77
2022/03/20 14:09:07;;;;;;;8.23;5.30;;;;;;;;;;5125229;27;20634;-78
2022/03/20 14:11:35;;;;;;;7.67;5.40;;;;;;;;;;5115143;28;20289;-78
2022/03/20 14:14:04;;;;;;;7.33;5.57;;;;;;;;;;5118178;28;20248;-78
2022/03/20 14:16:34;;;;;;;7.70;5.33;;;;;;;;;;5112947;28;20225;-77
2022/03/20 14:19:07;;;;;;;11.90;6.00;;;;;;;;;;5116794;28;20700;-78
2022/03/20 14:21:36;;;;;;;7.90;4.90;;;;;;;;;;5119082;28;20197;-78
2022/03/20 14:24:06;;;;;;;7.13;5.60;;;;;;;;;;5117539;28;20201;-78
2022/03/20 14:26:35;;;;;;;9.73;4.90;;;;;;;;;;5118820;28;20290;-78
2022/03/20 14:29:06;;;;;;;9.17;5.50;;;;;;;;;;5115365;28;20281;-76
2022/03/20 14:40:09;;;;;;;7.90;5.83;;;;;;;;;;5116228;28;20659;-78
2022/03/20 14:42:38;;;;;;;9.80;5.10;;;;;;;;;;5118519;28;20243;-78
2022/03/20 14:45:06;;;;;;;8.47;5.53;;;;;;;;;;5117475;28;20279;-78
2022/03/20 14:47:36;;;;;;;7.57;4.97;;;;;;;;;;5117292;28;20280;-77
2022/03/20 14:50:06;;;;;;;8.57;5.47;;;;;;;;;;5117784;28;20281;-76
2022/03/20 14:52:34;;;;;;;8.80;5.20;;;;;;;;;;5113180;28;20200;-78
2022/03/20 14:55:04;;;;;;;6.50;5.13;;;;;;;;;;5114337;28;20262;-78
2022/03/20 14:57:32;;;;;;;8.00;4.90;;;;;;;;;;5116207;28;20253;-77
2022/03/20 15:00:00;;;;;;;8.47;5.23;;;;;;;;;;5114293;28;20315;-78
2022/03/20 15:02:29;;;;;;;7.70;5.30;;;;;;;;;;5118821;28;20232;-78
2022/03/20 15:04:58;;;;;;;9.00;4.80;;;;;;;;;;5118754;28;20276;-78
2022/03/20 15:07:26;;;;;;;8.37;4.40;;;;;;;;;;5107275;27;20225;-78
2022/03/20 15:12:48;;;;;;;7.13;5.03;;;;;;;;;;5079920;27;20232;-78
2022/03/20 15:15:16;;;;;;;6.90;5.13;;;;;;;;;;5109497;28;20311;-79
2022/03/20 15:17:44;;;;;;;6.30;4.60;;;;;;;;;;5118828;27;20231;-78
2022/03/20 15:20:14;;;;;;;8.67;5.87;;;;;;;;;;5118189;27;20715;-78
2022/03/20 15:22:42;;;;;;;5.97;4.40;;;;;;;;;;5119247;27;20201;-78
2022/03/20 15:25:11;;;;;;;7.23;4.93;;;;;;;;;;5118533;28;20236;-78
2022/03/20 15:27:39;;;;;;;5.33;4.70;;;;;;;;;;5119075;27;20676;-78
2022/03/20 15:30:07;;;;;;;9.90;5.37;;;;;;;;;;5118036;28;20225;-78
2022/03/20 15:32:37;;;;;;;6.77;4.77;;;;;;;;;;5110145;28;20660;-79
2022/03/20 15:35:06;;;;;;;6.47;4.53;;;;;;;;;;5117477;28;20233;-78
2022/03/20 15:37:36;;;;;;;8.27;5.17;;;;;;;;;;5117791;28;20276;-78